Time;durP1;ratioP1;P1;durP2;ratioP2;P2;SDS_P1;SDS_P2;PMS_P1;PMS_P2;Temp;Humidity;BMP_temperature;BMP_pressure;BME280_temperature;BME280_humidity;BME280_pressure;Samples;Min_cycle;Max_cycle;Signal;HPM_P1;HPM_P2
2022/06/06 00:00:01;;;;;;;2.70;2.00;;;17.60;99.90;;;;;;4993583;28;20538;-84
2022/06/06 00:02:45;;;;;;;2.00;1.90;;;17.50;99.90;;;;;;5005047;28;20404;-84
2022/06/06 00:05:30;;;;;;;1.90;1.80;;;17.40;99.90;;;;;;5005473;28;20437;-84
2022/06/06 00:08:17;;;;;;;2.30;2.10;;;17.40;99.90;;;;;;4990959;28;20937;-84
2022/06/06 00:11:04;;;;;;;3.00;1.80;;;17.30;99.90;;;;;;5005069;28;20400;-85
2022/06/06 00:13:49;;;;;;;2.40;1.70;;;17.30;99.90;;;;;;5004447;28;20401;-84
2022/06/06 00:16:35;;;;;;;1.83;1.73;;;17.10;99.90;;;;;;5004715;28;20393;-84
2022/06/06 00:19:20;;;;;;;2.03;1.93;;;17.10;99.90;;;;;;5004650;28;20456;-84
2022/06/06 00:22:05;;;;;;;2.60;2.40;;;17.00;99.90;;;;;;4989425;28;20396;-82
2022/06/06 00:24:49;;;;;;;2.67;2.47;;;17.00;99.90;;;;;;5004462;28;20993;-84
2022/06/06 00:27:35;;;;;;;2.20;1.87;;;17.00;99.90;;;;;;5004338;28;20400;-84
2022/06/06 00:30:19;;;;;;;2.10;1.90;;;17.10;99.90;;;;;;5004431;28;20404;-84
2022/06/06 00:36:07;;;;;;;2.27;2.07;;;17.20;99.90;;;;;;5004480;28;21002;-84
2022/06/06 00:38:52;;;;;;;4.00;2.20;;;17.10;99.90;;;;;;4989891;28;20384;-84
2022/06/06 00:41:39;;;;;;;2.40;2.23;;;17.00;99.90;;;;;;5004292;28;20393;-84
2022/06/06 00:44:29;;;;;;;2.13;2.03;;;17.00;99.90;;;;;;4989971;28;20397;-83
2022/06/06 00:47:21;;;;;;;2.53;2.37;;;16.90;99.90;;;;;;4990574;28;20400;-83
2022/06/06 00:50:14;;;;;;;3.17;2.00;;;16.80;99.90;;;;;;5004372;28;20397;-84
2022/06/06 00:53:00;;;;;;;1.97;1.87;;;16.70;99.90;;;;;;5004418;28;20755;-83
2022/06/06 00:55:50;;;;;;;2.30;2.10;;;16.60;99.90;;;;;;5004864;28;20460;-84
2022/06/06 00:58:36;;;;;;;2.30;2.10;;;16.50;99.90;;;;;;5004689;28;20456;-83
2022/06/06 01:01:21;;;;;;;2.30;2.10;;;16.60;99.90;;;;;;4989269;28;20417;-84
2022/06/06 01:04:08;;;;;;;2.93;1.97;;;16.70;99.90;;;;;;5003903;28;20897;-85
2022/06/06 01:06:54;;;;;;;2.10;2.00;;;16.80;99.90;;;;;;5004294;28;20401;-83
2022/06/06 01:09:41;;;;;;;3.43;2.00;;;16.70;99.90;;;;;;5004165;28;20396;-84
2022/06/06 01:12:26;;;;;;;5.50;2.33;;;16.80;99.90;;;;;;5003199;28;20448;-83
2022/06/06 01:15:14;;;;;;;2.30;2.10;;;16.70;99.90;;;;;;5004105;28;20885;-83
2022/06/06 01:18:20;;;;;;;3.20;2.90;;;16.60;99.90;;;;;;5003217;28;20388;-83
2022/06/06 01:21:29;;;;;;;2.93;2.50;;;16.70;99.90;;;;;;5003215;28;20553;-81
2022/06/06 01:24:32;;;;;;;1.83;1.73;;;16.70;99.90;;;;;;5003622;28;20393;-83
2022/06/06 01:27:48;;;;;;;2.60;2.40;;;16.70;99.90;;;;;;4990277;28;20527;-83
2022/06/06 01:30:42;;;;;;;2.30;2.10;;;16.70;99.90;;;;;;5003837;28;20406;-83
2022/06/06 01:33:26;;;;;;;2.40;2.20;;;16.60;99.90;;;;;;5002998;28;20405;-84
2022/06/06 01:36:11;;;;;;;2.37;2.17;;;16.40;99.90;;;;;;5003105;28;20441;-84
2022/06/06 01:38:58;;;;;;;2.80;2.17;;;16.50;99.90;;;;;;4988633;28;20386;-82
2022/06/06 01:42:08;;;;;;;5.47;4.97;;;16.60;99.90;;;;;;5006532;28;20393;-84
2022/06/06 01:45:02;;;;;;;2.83;2.53;;;16.70;99.90;;;;;;4991808;28;20397;-85
2022/06/06 01:47:52;;;;;;;2.80;2.53;;;16.70;99.90;;;;;;4989257;28;20485;-84
2022/06/06 01:50:40;;;;;;;5.87;2.97;;;16.80;99.90;;;;;;5003359;28;20405;-84
2022/06/06 01:53:26;;;;;;;3.10;2.50;;;16.60;99.90;;;;;;4988327;28;20908;-84
2022/06/06 01:56:14;;;;;;;3.23;2.07;;;16.60;99.90;;;;;;5003101;28;20467;-84
2022/06/06 01:58:59;;;;;;;2.73;2.53;;;16.50;99.90;;;;;;4988605;28;20456;-84
2022/06/06 02:01:43;;;;;;;2.23;2.13;;;16.50;99.90;;;;;;5003531;28;20459;-84
2022/06/06 02:04:28;;;;;;;3.63;3.33;;;16.50;99.90;;;;;;5002362;28;20462;-83
2022/06/06 02:07:13;;;;;;;4.20;2.43;;;16.60;99.90;;;;;;5003038;28;20396;-84
2022/06/06 02:09:57;;;;;;;2.27;2.17;;;16.60;99.90;;;;;;5003570;28;20388;-84
2022/06/06 02:12:43;;;;;;;2.53;2.33;;;16.60;99.90;;;;;;5002997;28;20417;-84
2022/06/06 02:15:27;;;;;;;2.83;2.20;;;16.10;99.90;;;;;;5003715;28;20845;-84
2022/06/06 02:18:12;;;;;;;2.47;2.27;;;16.10;99.90;;;;;;5003293;28;20400;-84
2022/06/06 02:20:57;;;;;;;2.70;2.40;;;16.00;99.90;;;;;;5003350;28;20451;-84
2022/06/06 02:23:42;;;;;;;2.43;2.00;;;16.00;99.90;;;;;;5002869;28;20421;-84
2022/06/06 02:26:27;;;;;;;3.23;1.90;;;16.00;99.90;;;;;;5002360;28;20516;-84
2022/06/06 02:29:12;;;;;;;4.97;2.70;;;16.00;99.90;;;;;;5002446;28;20489;-84
2022/06/06 02:31:56;;;;;;;2.50;2.30;;;15.80;99.90;;;;;;5003672;28;20400;-84
2022/06/06 02:34:41;;;;;;;2.40;2.20;;;15.80;99.90;;;;;;5003031;28;20465;-84
2022/06/06 02:37:26;;;;;;;4.97;2.47;;;15.70;99.90;;;;;;5003122;28;20523;-84
2022/06/06 02:40:13;;;;;;;5.50;2.33;;;15.60;99.90;;;;;;5003305;28;20452;-84
2022/06/06 02:42:59;;;;;;;4.00;2.27;;;15.40;99.90;;;;;;5004037;28;20400;-84
2022/06/06 02:45:47;;;;;;;2.50;2.30;;;15.50;99.90;;;;;;5005384;28;20429;-84
2022/06/06 02:48:31;;;;;;;2.90;2.17;;;15.50;99.90;;;;;;5006822;28;20833;-84
2022/06/06 02:51:16;;;;;;;3.03;2.67;;;15.40;99.90;;;;;;5006848;28;20397;-84
2022/06/06 02:54:02;;;;;;;2.40;2.20;;;15.40;99.90;;;;;;4993011;28;20387;-84
2022/06/06 02:56:47;;;;;;;2.13;2.03;;;15.30;99.90;;;;;;5006867;28;20463;-84
2022/06/06 02:59:34;;;;;;;5.63;3.03;;;15.30;99.90;;;;;;5008394;28;20472;-84
2022/06/06 03:02:19;;;;;;;3.30;3.03;;;15.50;99.90;;;;;;5009184;28;20437;-84
2022/06/06 03:05:05;;;;;;;4.60;3.43;;;15.40;99.90;;;;;;5013978;28;20469;-84
2022/06/06 03:08:11;;;;;;;3.47;3.00;;;15.60;99.90;;;;;;5018958;28;20405;-84
2022/06/06 03:11:11;;;;;;;2.70;2.50;;;15.80;99.90;;;;;;5020180;28;20401;-82
2022/06/06 03:14:18;;;;;;;5.53;3.17;;;15.80;99.90;;;;;;5020801;28;20396;-84
2022/06/06 03:23:42;;;;;;;3.30;3.00;;;15.60;99.90;;;;;;5013541;28;20392;-84
2022/06/06 03:26:50;;;;;;;4.03;2.50;;;15.50;99.90;;;;;;4997288;28;20409;-84
2022/06/06 03:29:50;;;;;;;3.93;2.90;;;15.50;99.90;;;;;;5007326;28;20766;-84
2022/06/06 03:33:10;;;;;;;3.07;2.70;;;15.40;99.90;;;;;;5006430;28;20405;-84
2022/06/06 03:36:21;;;;;;;5.53;2.50;;;15.30;99.90;;;;;;4996121;28;20389;-84
2022/06/06 03:39:30;;;;;;;3.70;2.80;;;15.40;99.90;;;;;;4995299;28;20452;-84
2022/06/06 03:42:48;;;;;;;8.10;3.70;;;15.60;99.90;;;;;;5005801;28;20401;-83
2022/06/06 03:45:43;;;;;;;6.90;2.80;;;15.60;99.90;;;;;;5008432;28;20423;-83
2022/06/06 03:49:00;;;;;;;5.03;3.10;;;15.60;99.90;;;;;;5021958;28;20415;-82
2022/06/06 03:52:04;;;;;;;4.00;3.27;;;15.50;99.90;;;;;;5005533;28;20401;-84
2022/06/06 03:55:10;;;;;;;9.70;2.90;;;15.50;99.90;;;;;;5005649;28;20392;-84
2022/06/06 03:57:56;;;;;;;3.23;2.67;;;15.50;99.90;;;;;;5004308;28;20545;-84
2022/06/06 04:00:42;;;;;;;2.67;2.47;;;15.50;99.90;;;;;;5006184;28;20876;-84
2022/06/06 04:03:27;;;;;;;4.40;3.47;;;15.70;99.90;;;;;;4989995;28;20966;-83
2022/06/06 04:06:13;;;;;;;3.17;2.97;;;15.80;99.90;;;;;;4990526;28;20400;-84
2022/06/06 04:08:59;;;;;;;7.10;3.67;;;15.90;99.90;;;;;;5004734;28;20388;-85
2022/06/06 04:12:01;;;;;;;2.50;2.30;;;15.80;99.90;;;;;;5004419;28;20409;-84
2022/06/06 04:15:11;;;;;;;4.90;4.50;;;15.80;99.90;;;;;;5004386;28;20774;-84
2022/06/06 04:18:11;;;;;;;3.50;3.03;;;16.00;99.90;;;;;;4990535;28;20465;-84
2022/06/06 04:21:22;;;;;;;4.23;2.90;;;16.00;99.90;;;;;;5003956;28;20533;-84
2022/06/06 04:24:37;;;;;;;5.13;2.60;;;16.20;99.90;;;;;;5005441;28;20413;-84
2022/06/06 04:27:41;;;;;;;4.13;3.23;;;16.20;99.90;;;;;;5004704;28;20429;-84
2022/06/06 04:30:53;;;;;;;3.77;3.47;;;16.10;99.90;;;;;;4989665;28;20388;-84
2022/06/06 04:33:46;;;;;;;4.37;4.03;;;16.00;99.90;;;;;;5004445;28;20389;-84
2022/06/06 04:36:38;;;;;;;3.20;3.00;;;16.00;99.90;;;;;;5003917;28;20392;-84
2022/06/06 04:39:37;;;;;;;3.77;3.47;;;16.10;99.90;;;;;;5005167;28;20512;-85
2022/06/06 04:42:42;;;;;;;5.63;4.30;;;16.00;99.90;;;;;;4990583;28;20385;-84
2022/06/06 04:45:54;;;;;;;4.67;3.87;;;16.10;99.90;;;;;;4991005;28;20397;-84
2022/06/06 04:48:40;;;;;;;5.03;4.13;;;16.10;99.90;;;;;;5003843;28;20540;-84
2022/06/06 04:51:26;;;;;;;5.73;4.27;;;16.10;99.90;;;;;;5006803;28;20491;-84
2022/06/06 04:54:17;;;;;;;5.80;4.40;;;16.20;99.90;;;;;;5011492;28;20423;-84
2022/06/06 04:57:03;;;;;;;4.23;3.90;;;16.40;99.90;;;;;;5023130;28;20459;-84
2022/06/06 04:59:48;;;;;;;4.57;4.10;;;16.70;99.90;;;;;;5023779;28;20463;-83
2022/06/06 05:02:34;;;;;;;5.07;3.77;;;16.50;99.90;;;;;;5024439;28;20556;-82
2022/06/06 05:05:23;;;;;;;3.50;3.20;;;16.70;99.90;;;;;;5008828;28;20396;-83
2022/06/06 05:08:36;;;;;;;5.40;4.90;;;16.80;99.90;;;;;;5024060;28;20396;-83
2022/06/06 05:11:46;;;;;;;5.03;4.60;;;17.00;99.90;;;;;;5024416;28;20384;-83
2022/06/06 05:14:47;;;;;;;5.57;4.73;;;17.10;99.90;;;;;;5022966;28;20725;-84
2022/06/06 05:17:44;;;;;;;4.97;4.57;;;17.40;99.90;;;;;;5022625;28;20395;-83
2022/06/06 05:21:08;;;;;;;4.33;3.93;;;17.50;99.90;;;;;;5022976;28;20472;-84
2022/06/06 05:24:12;;;;;;;8.17;4.97;;;17.30;99.90;;;;;;5008567;28;20384;-84
2022/06/06 05:27:25;;;;;;;5.00;4.60;;;17.40;99.90;;;;;;5022599;28;20448;-84
2022/06/06 05:30:18;;;;;;;6.80;4.93;;;17.40;99.90;;;;;;5022997;28;20392;-84
2022/06/06 05:33:31;;;;;;;5.20;4.60;;;17.70;99.90;;;;;;5024342;28;20391;-85
2022/06/06 05:36:36;;;;;;;11.13;4.33;;;17.80;99.90;;;;;;5025285;28;20461;-84
2022/06/06 05:39:45;;;;;;;4.87;4.47;;;17.90;99.90;;;;;;5024579;28;20463;-84
2022/06/06 05:42:51;;;;;;;6.47;4.47;;;18.20;99.90;;;;;;5025182;28;20392;-84
2022/06/06 05:46:01;;;;;;;6.37;5.67;;;18.10;99.90;;;;;;5026549;28;20387;-84
2022/06/06 05:49:07;;;;;;;5.07;4.57;;;18.30;99.90;;;;;;5027594;28;20411;-84
2022/06/06 05:52:21;;;;;;;9.70;5.27;;;18.20;99.90;;;;;;5007485;28;20383;-84
2022/06/06 05:55:25;;;;;;;7.93;5.53;;;18.20;99.90;;;;;;5023325;28;20453;-84
2022/06/06 05:58:32;;;;;;;4.77;4.37;;;18.30;99.90;;;;;;5022663;28;20458;-84
2022/06/06 06:01:40;;;;;;;6.23;4.93;;;18.10;99.90;;;;;;5022548;28;20511;-84
2022/06/06 06:04:40;;;;;;;5.30;4.80;;;18.30;99.90;;;;;;5022448;28;20394;-84
2022/06/06 06:07:42;;;;;;;11.20;5.40;;;18.50;99.90;;;;;;5008870;28;20884;-84
2022/06/06 06:11:01;;;;;;;6.13;5.20;;;18.50;99.90;;;;;;5023857;28;20407;-85
2022/06/06 06:14:10;;;;;;;5.33;4.80;;;18.60;99.90;;;;;;5019636;28;20387;-84
2022/06/06 06:16:59;;;;;;;6.80;5.13;;;18.90;99.90;;;;;;5024316;28;20480;-84
2022/06/06 06:19:55;;;;;;;5.33;4.70;;;19.00;99.90;;;;;;5024824;28;20542;-84
2022/06/06 06:22:51;;;;;;;5.53;4.40;;;19.20;99.90;;;;;;5027036;28;20768;-85
2022/06/06 06:25:38;;;;;;;7.40;5.50;;;18.90;99.90;;;;;;5028014;28;20419;-84
2022/06/06 06:28:24;;;;;;;6.37;5.47;;;18.90;99.90;;;;;;5014423;28;20768;-84
2022/06/06 06:31:31;;;;;;;7.77;4.93;;;19.10;99.90;;;;;;5026710;28;20446;-83
2022/06/06 06:34:41;;;;;;;5.67;5.07;;;19.10;99.90;;;;;;5027387;28;20451;-84
2022/06/06 06:38:01;;;;;;;4.70;4.30;;;19.20;99.90;;;;;;5026081;28;20390;-85
2022/06/06 06:40:59;;;;;;;6.33;5.40;;;19.20;99.90;;;;;;5025305;28;20454;-84
2022/06/06 06:44:01;;;;;;;4.50;4.10;;;19.40;99.90;;;;;;5026176;28;20391;-84
2022/06/06 06:46:55;;;;;;;5.43;4.33;;;19.30;99.90;;;;;;5025506;28;20398;-84
2022/06/06 06:49:44;;;;;;;6.40;5.13;;;19.60;99.90;;;;;;5026235;28;20391;-84
2022/06/06 06:52:48;;;;;;;5.30;4.80;;;19.40;99.90;;;;;;4965423;28;20426;-84
2022/06/06 06:55:45;;;;;;;5.40;4.83;;;19.40;99.90;;;;;;4965281;29;20441;-84
2022/06/06 06:58:44;;;;;;;5.60;4.97;;;19.40;99.90;;;;;;4979864;28;20427;-84
2022/06/06 07:08:45;;;;;;;5.53;4.97;;;19.40;99.90;;;;;;4965926;29;20390;-84
2022/06/06 07:11:59;;;;;;;5.90;5.40;;;19.40;99.90;;;;;;4966176;28;20414;-84
2022/06/06 07:15:01;;;;;;;6.20;4.93;;;19.00;99.90;;;;;;4965605;29;20443;-84
2022/06/06 07:17:51;;;;;;;5.33;4.80;;;19.20;99.90;;;;;;4966496;29;20831;-84
2022/06/06 07:20:38;;;;;;;4.93;4.10;;;19.20;99.90;;;;;;4951819;29;20462;-84
2022/06/06 07:23:28;;;;;;;5.47;5.03;;;19.10;99.90;;;;;;5002775;28;20414;-84
2022/06/06 07:26:13;;;;;;;5.03;4.57;;;19.30;99.90;;;;;;5028554;28;20892;-84
2022/06/06 07:28:57;;;;;;;5.30;4.80;;;19.30;99.90;;;;;;5012034;28;20520;-84
2022/06/06 07:31:58;;;;;;;5.23;4.73;;;19.30;99.90;;;;;;5010694;28;20439;-84
2022/06/06 07:34:59;;;;;;;5.07;4.57;;;19.30;99.90;;;;;;5014328;28;20396;-83
2022/06/06 07:38:17;;;;;;;5.10;4.60;;;19.20;99.90;;;;;;5028706;28;20450;-82
2022/06/06 07:41:22;;;;;;;4.50;4.00;;;19.40;99.90;;;;;;5029209;28;20513;-83
2022/06/06 07:44:33;;;;;;;4.63;4.30;;;19.60;99.90;;;;;;5029353;28;20419;-84
2022/06/06 07:47:52;;;;;;;7.03;4.20;;;19.70;99.90;;;;;;5013840;28;20407;-84
2022/06/06 07:50:49;;;;;;;8.40;4.30;;;19.50;99.90;;;;;;5013929;28;20955;-85
2022/06/06 07:53:53;;;;;;;5.23;4.30;;;19.80;99.90;;;;;;5017701;28;20451;-84
2022/06/06 07:57:07;;;;;;;4.73;4.13;;;19.90;99.90;;;;;;5017127;28;20478;-84
2022/06/06 08:00:13;;;;;;;8.50;4.60;;;20.10;99.90;;;;;;5006535;28;20447;-84
2022/06/06 08:03:19;;;;;;;4.20;3.80;;;19.80;99.90;;;;;;5028482;28;20869;-85
2022/06/06 08:06:18;;;;;;;4.23;3.83;;;20.20;99.90;;;;;;5028547;28;20503;-85
2022/06/06 08:09:25;;;;;;;6.77;4.43;;;20.60;99.90;;;;;;5015907;28;20380;-84
2022/06/06 08:12:26;;;;;;;4.73;4.37;;;20.70;99.90;;;;;;5028982;28;20387;-85
2022/06/06 08:15:48;;;;;;;7.13;5.30;;;20.70;99.90;;;;;;5028831;28;20383;-84
2022/06/06 08:19:01;;;;;;;5.17;4.67;;;20.50;99.90;;;;;;5031825;28;20703;-84
2022/06/06 08:21:49;;;;;;;4.40;4.00;;;20.70;99.90;;;;;;5021811;28;20712;-84
2022/06/06 08:24:38;;;;;;;4.83;4.40;;;20.80;99.90;;;;;;5015165;28;20392;-83
2022/06/06 08:27:26;;;;;;;5.00;4.53;;;21.20;99.90;;;;;;5026964;28;20648;-84
2022/06/06 08:30:12;;;;;;;4.23;3.83;;;21.20;99.90;;;;;;5026057;28;20392;-84
2022/06/06 08:32:56;;;;;;;4.77;4.23;;;20.80;99.90;;;;;;5010522;28;20383;-84
2022/06/06 08:36:09;;;;;;;4.40;4.10;;;20.80;99.90;;;;;;5025262;28;20423;-85
2022/06/06 08:39:30;;;;;;;4.70;4.30;;;20.70;99.90;;;;;;5024668;28;20441;-83
2022/06/06 08:42:36;;;;;;;5.77;4.27;;;21.00;99.90;;;;;;5025161;28;20416;-85
2022/06/06 08:45:48;;;;;;;4.80;4.30;;;20.90;99.90;;;;;;5024200;28;20387;-83
2022/06/06 08:50:44;;;;;;;4.47;4.10;;;21.10;99.90;;;;;;5023874;28;20403;-85
2022/06/06 08:52:56;;;;;;;4.33;4.00;;;21.40;99.90;;;;;;5014944;28;20404;-83
2022/06/06 08:56:07;;;;;;;4.67;4.27;;;20.70;99.90;;;;;;5008575;28;20471;-84
2022/06/06 08:59:21;;;;;;;6.07;5.03;;;21.20;99.90;;;;;;4990802;28;20448;-84
2022/06/06 09:02:46;;;;;;;4.80;4.43;;;21.30;99.90;;;;;;5002821;28;20392;-83
2022/06/06 09:05:55;;;;;;;5.33;3.70;;;21.30;99.90;;;;;;4994777;28;20393;-84
2022/06/06 09:09:14;;;;;;;5.00;4.43;;;21.30;99.90;;;;;;5004475;28;20537;-84
2022/06/06 09:12:28;;;;;;;4.80;4.27;;;21.30;99.90;;;;;;5003524;28;20397;-83
2022/06/06 09:15:48;;;;;;;4.53;4.13;;;21.30;99.90;;;;;;4990426;28;20397;-84
2022/06/06 09:19:00;;;;;;;4.63;4.23;;;20.90;99.90;;;;;;5002892;28;20795;-83
2022/06/06 09:22:00;;;;;;;10.83;4.87;;;21.30;99.90;;;;;;4990542;28;20405;-84
2022/06/06 09:25:15;;;;;;;4.80;4.30;;;21.60;99.90;;;;;;5003008;28;20393;-83
2022/06/06 09:28:31;;;;;;;5.20;4.10;;;21.90;99.90;;;;;;5002948;28;20424;-83
2022/06/06 09:31:47;;;;;;;5.43;3.63;;;21.60;99.90;;;;;;5004939;28;20425;-84
2022/06/06 09:35:03;;;;;;;4.50;4.17;;;21.60;99.90;;;;;;4991823;28;20439;-84
2022/06/06 09:38:19;;;;;;;4.37;4.07;;;21.50;99.90;;;;;;5004538;28;20400;-84
2022/06/06 09:41:33;;;;;;;7.60;5.00;;;21.50;99.90;;;;;;5003235;28;20448;-85
2022/06/06 09:44:57;;;;;;;6.20;4.40;;;21.80;99.90;;;;;;4987466;28;20397;-84
2022/06/06 09:48:06;;;;;;;3.67;3.47;;;22.50;99.90;;;;;;5001211;28;20384;-84
2022/06/06 09:51:22;;;;;;;4.27;3.20;;;21.90;99.90;;;;;;4969042;28;20527;-84
2022/06/06 10:01:26;;;;;;;4.00;3.70;;;21.80;99.90;;;;;;5007157;28;20511;-84
2022/06/06 10:04:51;;;;;;;4.20;3.90;;;21.60;99.90;;;;;;5007895;28;20901;-85
2022/06/06 10:08:10;;;;;;;4.30;3.83;;;21.70;99.90;;;;;;5018626;28;20396;-84
2022/06/06 10:11:31;;;;;;;4.43;3.40;;;21.60;99.90;;;;;;5008023;28;20448;-84
2022/06/06 10:14:34;;;;;;;5.83;3.57;;;21.60;99.90;;;;;;5007639;28;20415;-84
2022/06/06 10:17:46;;;;;;;4.43;3.40;;;21.60;99.90;;;;;;5007242;28;20471;-84
2022/06/06 10:20:47;;;;;;;3.63;3.33;;;21.30;99.90;;;;;;5008261;28;20479;-84
2022/06/06 10:23:56;;;;;;;4.00;3.57;;;21.80;99.90;;;;;;5007636;28;20392;-84
2022/06/06 10:26:57;;;;;;;4.20;3.80;;;22.00;99.90;;;;;;5006509;28;20459;-84
2022/06/06 10:30:10;;;;;;;6.43;3.80;;;22.60;99.90;;;;;;5007748;28;20401;-83
2022/06/06 10:33:23;;;;;;;4.70;4.20;;;22.80;99.90;;;;;;5007232;28;20459;-81
2022/06/06 10:36:34;;;;;;;4.37;3.83;;;22.50;99.90;;;;;;5006934;28;20396;-84
2022/06/06 10:39:50;;;;;;;3.87;3.57;;;22.80;99.90;;;;;;4990420;28;20444;-83
2022/06/06 10:42:58;;;;;;;3.57;3.27;;;22.80;99.90;;;;;;4992971;28;20398;-83
2022/06/06 10:45:48;;;;;;;8.03;3.50;;;23.20;99.90;;;;;;5025268;28;20795;-85
2022/06/06 10:48:53;;;;;;;4.17;3.63;;;23.20;99.90;;;;;;5048847;28;20399;-85
2022/06/06 10:52:18;;;;;;;5.40;3.43;;;23.40;99.90;;;;;;5050914;28;20438;-84
2022/06/06 10:55:36;;;;;;;3.10;2.80;;;23.10;99.90;;;;;;5047137;28;20480;-84
2022/06/06 10:58:46;;;;;;;3.33;3.03;;;22.80;99.90;;;;;;5031784;28;20754;-84
2022/06/06 11:01:59;;;;;;;3.80;3.10;;;23.60;99.90;;;;;;5050712;28;20462;-86
2022/06/06 11:05:03;;;;;;;5.50;2.93;;;23.70;99.90;;;;;;5035264;28;20386;-84
2022/06/06 11:08:19;;;;;;;2.70;2.50;;;23.80;99.90;;;;;;5034156;28;20386;-85
2022/06/06 11:11:28;;;;;;;4.63;3.80;;;23.60;99.90;;;;;;5031787;28;20383;-86
2022/06/06 11:14:24;;;;;;;3.50;3.20;;;23.60;99.90;;;;;;5033605;28;20469;-86
2022/06/06 11:17:37;;;;;;;4.97;3.40;;;23.50;99.90;;;;;;4992142;28;20793;-85
2022/06/06 11:20:51;;;;;;;3.57;3.33;;;23.60;99.90;;;;;;5047211;28;20450;-85
2022/06/06 11:23:43;;;;;;;3.90;3.50;;;24.00;99.90;;;;;;5045608;28;20422;-85
2022/06/06 11:26:58;;;;;;;3.03;2.83;;;24.10;99.90;;;;;;5045672;28;20415;-86
2022/06/06 11:30:05;;;;;;;3.77;3.37;;;24.20;99.90;;;;;;5047173;28;20514;-84
2022/06/06 11:33:17;;;;;;;3.83;3.30;;;23.80;99.90;;;;;;5046314;28;20458;-84
2022/06/06 11:36:29;;;;;;;3.20;2.90;;;23.90;99.90;;;;;;5032623;28;20453;-85
2022/06/06 11:39:51;;;;;;;3.10;2.90;;;23.90;99.90;;;;;;5035278;28;20417;-85
2022/06/06 11:43:06;;;;;;;3.10;2.90;;;24.20;99.90;;;;;;5044661;28;20943;-83
2022/06/06 11:46:12;;;;;;;4.10;2.60;;;24.50;99.90;;;;;;5046300;28;20442;-84
2022/06/06 11:49:36;;;;;;;4.77;2.60;;;23.90;99.90;;;;;;5031438;28;20391;-83
2022/06/06 11:53:02;;;;;;;3.90;3.70;;;23.60;99.90;;;;;;5034591;28;20414;-84
2022/06/06 11:56:17;;;;;;;2.80;2.60;;;23.50;99.90;;;;;;5030847;28;20426;-85
2022/06/06 11:59:33;;;;;;;2.40;2.20;;;23.70;99.90;;;;;;4979237;28;20424;-83
2022/06/06 12:02:56;;;;;;;2.53;2.33;;;23.80;99.90;;;;;;5026119;28;20443;-84
2022/06/06 12:06:04;;;;;;;2.60;2.40;;;24.00;99.90;;;;;;5026175;28;20451;-84
2022/06/06 12:09:19;;;;;;;4.20;2.93;;;24.10;99.90;;;;;;5026049;28;20392;-86
2022/06/06 12:12:37;;;;;;;2.30;2.10;;;24.40;99.90;;;;;;4999945;28;20396;-81
2022/06/06 12:15:39;;;;;;;2.37;2.07;;;24.40;99.90;;;;;;5009168;28;20400;-83
2022/06/06 12:18:44;;;;;;;2.87;2.30;;;24.80;99.90;;;;;;4995656;28;20454;-85
2022/06/06 12:21:55;;;;;;;5.83;3.10;;;24.60;99.90;;;;;;5023785;28;20460;-85
2022/06/06 12:25:05;;;;;;;2.97;2.77;;;25.00;99.90;;;;;;4982688;28;20429;-79
2022/06/06 12:28:25;;;;;;;2.30;2.10;;;24.90;99.90;;;;;;4982942;28;20486;-81
2022/06/06 12:31:35;;;;;;;3.00;2.50;;;25.40;99.90;;;;;;4969155;28;20478;-83
2022/06/06 12:34:43;;;;;;;2.67;2.47;;;25.10;99.90;;;;;;4981944;28;20433;-82
2022/06/06 12:37:41;;;;;;;2.30;2.10;;;26.10;99.90;;;;;;4984793;28;20452;-83
2022/06/06 12:40:52;;;;;;;3.30;2.30;;;25.90;95.60;;;;;;4982501;28;20548;-84
2022/06/06 12:43:51;;;;;;;2.40;2.20;;;25.90;97.90;;;;;;4969046;28;20462;-84
2022/06/06 12:47:06;;;;;;;2.33;2.13;;;26.90;92.20;;;;;;4967730;28;20405;-81
2022/06/06 12:50:06;;;;;;;2.50;2.30;;;28.20;84.30;;;;;;4981710;28;20417;-82
2022/06/06 12:53:16;;;;;;;3.00;2.30;;;26.90;86.10;;;;;;4982928;28;20413;-81
2022/06/06 12:56:37;;;;;;;3.50;2.40;;;25.60;87.20;;;;;;5000541;28;20419;-81
2022/06/06 12:59:36;;;;;;;2.37;2.13;;;25.50;90.30;;;;;;5039221;28;20518;-82
2022/06/06 13:02:50;;;;;;;2.10;2.00;;;27.00;89.40;;;;;;5029068;28;20386;-83
2022/06/06 13:05:46;;;;;;;3.13;2.83;;;27.80;87.00;;;;;;5031333;28;20898;-84
2022/06/06 13:09:00;;;;;;;5.03;2.30;;;26.30;86.50;;;;;;5020182;28;20516;-84
2022/06/06 13:12:09;;;;;;;2.73;2.07;;;26.60;85.20;;;;;;5019412;28;20395;-82
2022/06/06 13:15:11;;;;;;;2.73;2.43;;;26.60;85.00;;;;;;5032288;28;20444;-83
2022/06/06 13:18:14;;;;;;;2.57;1.97;;;26.90;83.10;;;;;;5045588;28;20437;-83
2022/06/06 13:21:18;;;;;;;2.27;2.07;;;26.40;94.30;;;;;;5044528;28;20453;-84
2022/06/06 13:24:28;;;;;;;4.10;1.83;;;25.60;98.20;;;;;;5030288;28;20417;-84
2022/06/06 13:27:18;;;;;;;2.20;2.10;;;24.90;99.90;;;;;;5029203;28;20522;-82
2022/06/06 13:30:22;;;;;;;2.50;2.30;;;24.50;99.90;;;;;;5008867;28;20443;-83
2022/06/06 13:33:29;;;;;;;2.07;1.87;;;24.30;99.90;;;;;;5007454;28;20583;-82
2022/06/06 13:36:44;;;;;;;1.80;1.70;;;24.20;99.90;;;;;;4991157;28;20840;-83
2022/06/06 13:39:59;;;;;;;3.63;1.93;;;24.00;99.90;;;;;;5004302;28;20543;-82
2022/06/06 13:43:10;;;;;;;2.50;2.27;;;23.90;99.90;;;;;;4990987;28;20542;-83
2022/06/06 13:46:20;;;;;;;2.23;2.07;;;23.90;99.90;;;;;;4988981;28;20412;-83
2022/06/06 13:49:20;;;;;;;2.40;1.70;;;24.00;99.90;;;;;;5001922;28;20437;-83
2022/06/06 13:52:26;;;;;;;2.17;1.93;;;24.00;99.90;;;;;;4987565;28;20517;-80
2022/06/06 13:55:30;;;;;;;2.17;1.97;;;24.00;99.90;;;;;;4988261;28;20436;-85
2022/06/06 13:58:37;;;;;;;2.33;2.13;;;24.00;99.90;;;;;;4962797;28;20457;-82
2022/06/06 14:01:48;;;;;;;2.40;2.20;;;24.80;99.90;;;;;;4935112;29;20485;-82
2022/06/06 14:04:52;;;;;;;3.47;2.50;;;25.40;99.90;;;;;;4910667;29;20435;-84
2022/06/06 14:07:56;;;;;;;2.23;2.00;;;26.00;99.90;;;;;;4972616;28;20404;-83
2022/06/06 14:10:57;;;;;;;2.67;2.47;;;26.60;99.90;;;;;;4970814;28;20393;-83
2022/06/06 14:13:48;;;;;;;2.70;2.50;;;26.50;99.90;;;;;;4944198;29;20422;-82
2022/06/06 14:16:46;;;;;;;2.80;2.50;;;26.00;99.90;;;;;;4949198;29;20398;-84
2022/06/06 14:19:53;;;;;;;2.50;2.30;;;25.90;99.90;;;;;;4963074;29;20534;-80
2022/06/06 14:22:39;;;;;;;2.60;2.40;;;26.00;99.90;;;;;;4949944;28;20511;-82
2022/06/06 14:25:42;;;;;;;2.60;2.40;;;25.80;99.90;;;;;;4948367;29;20414;-82
2022/06/06 14:28:34;;;;;;;4.00;2.57;;;25.80;99.90;;;;;;4958989;28;20477;-81
2022/06/06 14:31:25;;;;;;;3.20;2.93;;;25.60;99.90;;;;;;4986584;28;20392;-81
2022/06/06 14:34:33;;;;;;;3.20;2.90;;;25.40;99.90;;;;;;4993024;28;20400;-83
2022/06/06 14:37:25;;;;;;;2.37;2.27;;;25.20;99.90;;;;;;5022126;28;20395;-80
2022/06/06 14:40:32;;;;;;;2.90;2.47;;;25.10;99.90;;;;;;5021267;28;20442;-83
2022/06/06 14:43:18;;;;;;;2.30;1.80;;;25.10;99.90;;;;;;5025519;28;20394;-82
2022/06/06 14:46:04;;;;;;;3.90;2.43;;;24.70;99.90;;;;;;5010807;28;20400;-81
2022/06/06 14:48:57;;;;;;;2.60;2.17;;;24.70;99.90;;;;;;5024985;28;20447;-82
2022/06/06 14:51:43;;;;;;;2.53;2.33;;;24.40;99.90;;;;;;5024732;28;20463;-82
2022/06/06 14:54:27;;;;;;;3.87;2.23;;;24.50;99.90;;;;;;5023483;28;20422;-83
2022/06/06 14:57:12;;;;;;;2.37;2.17;;;24.20;99.90;;;;;;5037804;28;20993;-80
2022/06/06 14:59:59;;;;;;;2.40;2.20;;;24.10;99.90;;;;;;5030225;28;20462;-82
2022/06/06 15:03:01;;;;;;;2.20;2.00;;;24.10;99.90;;;;;;5045377;28;20454;-82
2022/06/06 15:05:46;;;;;;;2.80;2.60;;;24.00;99.90;;;;;;5031714;28;20481;-83
2022/06/06 15:08:35;;;;;;;2.73;2.50;;;24.20;99.90;;;;;;5046530;28;20403;-85
2022/06/06 15:11:43;;;;;;;5.83;3.50;;;24.10;99.90;;;;;;5045337;28;20395;-81
2022/06/06 15:14:47;;;;;;;3.50;2.80;;;23.90;99.90;;;;;;4971870;28;20847;-84
2022/06/06 15:17:39;;;;;;;4.10;2.93;;;23.70;99.90;;;;;;5004465;28;20456;-83
2022/06/06 15:20:30;;;;;;;2.97;2.67;;;23.60;99.90;;;;;;4964759;28;20841;-83
2022/06/06 15:23:20;;;;;;;2.70;2.47;;;23.50;99.90;;;;;;5007207;28;20408;-83
2022/06/06 15:26:19;;;;;;;7.10;3.33;;;23.50;99.90;;;;;;4994026;28;20429;-85
2022/06/06 15:29:23;;;;;;;3.83;3.50;;;23.30;99.90;;;;;;4970097;28;20421;-81
2022/06/06 15:32:20;;;;;;;7.23;3.20;;;23.20;99.90;;;;;;4987160;28;20428;-83
2022/06/06 15:35:21;;;;;;;4.13;3.73;;;23.10;99.90;;;;;;4969508;28;20448;-85
2022/06/06 15:38:28;;;;;;;3.40;3.20;;;23.00;99.90;;;;;;4981755;28;20437;-84
2022/06/06 15:41:38;;;;;;;2.80;2.60;;;22.90;99.90;;;;;;4993159;28;20488;-85
2022/06/06 15:45:01;;;;;;;3.20;3.00;;;22.80;99.90;;;;;;5009254;28;20478;-83
2022/06/06 15:48:17;;;;;;;3.60;3.03;;;22.70;99.90;;;;;;5020774;28;20403;-84
2022/06/06 15:51:17;;;;;;;4.53;3.43;;;22.70;99.90;;;;;;5048050;28;20414;-83
2022/06/06 15:54:38;;;;;;;4.80;2.90;;;22.50;99.90;;;;;;5018795;28;20455;-82
2022/06/06 15:57:44;;;;;;;3.97;3.50;;;22.50;99.90;;;;;;5031468;28;20542;-83
2022/06/06 16:00:49;;;;;;;11.50;3.63;;;22.50;99.90;;;;;;5031921;28;20473;-84
2022/06/06 16:04:01;;;;;;;4.37;3.97;;;22.30;99.90;;;;;;5047603;28;20786;-82